Arches Natl Park, Utah
Current Conditions -  °F | °C
As of 9:53 PM on Sunday 21 Dec 2014 (Local Time) from KCNY Reporting Station
Clear Clear  
Wind Chill:   Ceiling: Unl
Heat Index:   Visibility: 10mi
Dew Point: -1°   Wind: 0mph
Humidity: 92%   Direction: NA
Pressure: 29.93"   Gusts: NA
Location:  38.7°N, 109.75°W
Report Text: KCNY 220453Z AUTO 00000KT 10SM CLR 00/M01 A2993 RMK AO2 SLP146 T00001011
Loading
Personal Weather Stations






























Interactive Weather Map New forecast layout! Learn more

10-Day Weather Forecast

Advertisements
Track Severe Weather on mobile